Dauntless — WDE4094 — position and weather

sailwx.info

Track history (hours):
 
Tides and Currents Weather Stations Pressure Air Temp Water Temp Dewpoint Dewpoint Depression Visibility Wind Speed Wind Dir Waves Ship Positions

Dauntless

Owner: Crahan III, Marcus E, Corona del Mar, CA. More information available from US FCC via Universal Licensing System and Coast Guard Vessel Documentation Center.

Last reported at 2017-Oct-16 22:20 UTC. Time now 2017-Oct-16 22:34 UTC.
Position N 33°32' W 118°07'.

Length 16 m.

Type: Sailing vessel. MMSI: 367348670.

Date/timePositionNaut miles runAvg speedWind from/ knotsBaromVisibWave heightAir tempDewpointWater temp
2017-Oct-16 22:20N 33°32' W 118°07'4 7.3
2017-Oct-16 21:49N 33°31' W 118°11'12 7.1
2017-Oct-16 20:07N 33°28' W 118°25'1 7.1
2017-Oct-16 20:00N 33°28' W 118°26'3 1.1
2017-Oct-16 17:01N 33°27' W 118°30'0 0.0
2017-Oct-16 16:58N 33°27' W 118°30'0 0.0
2017-Oct-16 16:12N 33°27' W 118°30'0 0.0
2017-Oct-16 15:48N 33°27' W 118°30'0 0.0
2017-Oct-15 11:24N 33°27' W 118°30'0 0.0
2017-Oct-15 09:42N 33°27' W 118°30'0 0.0
2017-Oct-15 09:29N 33°27' W 118°30'0 0.0
2017-Oct-15 04:59N 33°27' W 118°30'0 0.0
2017-Oct-15 04:30N 33°27' W 118°30'0 0.0
2017-Oct-15 02:48N 33°27' W 118°30'0 0.0
2017-Oct-15 02:29N 33°27' W 118°30'0 0.0
2017-Oct-15 01:59N 33°27' W 118°30'0 0.0
2017-Oct-15 01:23N 33°27' W 118°30'0 0.0
2017-Oct-15 00:55N 33°27' W 118°30'0 0.0
2017-Oct-15 00:30N 33°27' W 118°30'0 0.0
2017-Oct-14 23:59N 33°27' W 118°30'0 0.0
2017-Oct-14 22:54N 33°27' W 118°30'0 0.0
2017-Oct-14 22:28N 33°27' W 118°30'0 0.0
2017-Oct-14 21:21N 33°27' W 118°30'0 0.0
2017-Oct-14 21:00N 33°27' W 118°30'0 0.0
2017-Oct-14 20:30N 33°27' W 118°30'0 0.0
2017-Oct-14 20:00N 33°27' W 118°30'0 0.0
2017-Oct-14 19:30N 33°27' W 118°30'0 0.1
2017-Oct-14 19:00N 33°27' W 118°30'2 4.5
2017-Oct-14 18:30N 33°26' W 118°27'4 6.7
2017-Oct-14 17:58N 33°25' W 118°23'3 6.0
2017-Oct-14 17:30N 33°23' W 118°21'3 5.1
2017-Oct-14 16:58N 33°21' W 118°19'3 7.4
2017-Oct-14 16:30N 33°23' W 118°16'4 7.3
2017-Oct-14 16:00N 33°25' W 118°12'4 7.3
2017-Oct-14 15:29N 33°27' W 118°08'4 7.3
2017-Oct-14 14:57N 33°29' W 118°04'3 7.2
2017-Oct-14 14:30N 33°31' W 118°01'4 7.1
2017-Oct-14 14:00N 33°33' W 117°58'4 7.1
2017-Oct-14 13:30N 33°35' W 117°54'1 2.7
2017-Oct-14 13:00N 33°36' W 117°53'2 3.8
2017-Oct-14 12:30N 33°37' W 117°55'0 0.0
2017-Oct-14 12:00N 33°37' W 117°55'0 0.0
2017-Oct-14 11:24N 33°37' W 117°55'0 0.0
2017-Oct-14 09:06N 33°37' W 117°55'0 0.0
2017-Oct-14 08:54N 33°37' W 117°55'0 0.0
2017-Oct-14 08:24N 33°37' W 117°55'0 0.0
2017-Oct-14 07:54N 33°37' W 117°55'0 0.0
2017-Oct-14 07:27N 33°37' W 117°55'0 0.0
2017-Oct-14 07:00N 33°37' W 117°55'0 0.0
2017-Oct-14 06:30N 33°37' W 117°55'0 0.0
2017-Oct-14 06:00N 33°37' W 117°55'0 0.0
2017-Oct-14 05:30N 33°37' W 117°55'0 0.0
2017-Oct-14 04:12N 33°37' W 117°55'0 0.0
2017-Oct-14 04:00N 33°37' W 117°55'0 0.0
2017-Oct-14 03:30N 33°37' W 117°55'0 0.0
2017-Oct-14 03:00N 33°37' W 117°55'0 0.0
2017-Oct-14 02:30N 33°37' W 117°55'0 0.0
2017-Oct-14 02:00N 33°37' W 117°55'0 0.0
2017-Oct-13 23:48N 33°37' W 117°55'0 0.0
2017-Oct-13 23:30N 33°37' W 117°55'0 0.0
2017-Oct-13 22:54N 33°37' W 117°55'0 0.0
2017-Oct-13 21:39N 33°37' W 117°55'0 0.0
2017-Oct-13 21:24N 33°37' W 117°55'0 0.0
2017-Oct-13 21:00N 33°37' W 117°55'0 0.0
2017-Oct-13 20:30N 33°37' W 117°55'0 0.0
2017-Oct-13 19:36N 33°37' W 117°55'0 0.0
2017-Oct-13 19:30N 33°37' W 117°55'0 0.0
2017-Oct-13 18:51N 33°37' W 117°55'0 0.0
2017-Oct-13 18:24N 33°37' W 117°55'0 0.0
2017-Oct-13 18:00N 33°37' W 117°55'0 0.0
2017-Oct-13 17:00N 33°37' W 117°55'0 0.0
2017-Oct-13 16:12N 33°37' W 117°55'0 0.0
2017-Oct-13 16:00N 33°37' W 117°55'0 0.0
2017-Oct-13 15:30N 33°37' W 117°55'0 0.0
2017-Oct-13 14:45N 33°37' W 117°55'0 0.0
2017-Oct-13 14:30N 33°37' W 117°55'0 0.0
2017-Oct-13 14:00N 33°37' W 117°55'0 0.0
2017-Oct-13 13:30N 33°37' W 117°55'0 0.0
2017-Oct-13 13:00N 33°37' W 117°55'0 0.0
2017-Oct-13 12:12N 33°37' W 117°55'0 0.0
2017-Oct-13 11:42N 33°37' W 117°55'0 0.0
2017-Oct-13 11:30N 33°37' W 117°55'0 0.0
2017-Oct-13 10:42N 33°37' W 117°55'0 0.0
2017-Oct-13 10:24N 33°37' W 117°55'0 0.0
2017-Oct-13 10:00N 33°37' W 117°55'0 0.0
2017-Oct-13 09:30N 33°37' W 117°55'0 0.0
2017-Oct-13 09:00N 33°37' W 117°55'0 0.0
2017-Oct-13 08:00N 33°37' W 117°55'0 0.0
2017-Oct-13 07:30N 33°37' W 117°55'0 0.0
2017-Oct-13 07:00N 33°37' W 117°55'0 0.0
2017-Oct-13 06:30N 33°37' W 117°55'0 0.0
2017-Oct-13 06:00N 33°37' W 117°55'0 0.0
2017-Oct-13 05:30N 33°37' W 117°55'0 0.0
2017-Oct-13 05:00N 33°37' W 117°55'0 0.0
2017-Oct-13 03:06N 33°37' W 117°55'0 0.0
2017-Oct-13 03:00N 33°37' W 117°55'0 0.0
2017-Oct-13 00:10N 33°37' W 117°55'0 0.0
2017-Oct-12 23:52N 33°37' W 117°55'0 0.0
2017-Oct-12 21:06N 33°37' W 117°55'0 0.1
2017-Oct-12 21:00N 33°37' W 117°55'0 0.0
2017-Oct-12 20:24N 33°37' W 117°55'0 0.0
2017-Oct-12 20:00N 33°37' W 117°55'0 0.0
2017-Oct-12 19:30N 33°37' W 117°55'0 0.0
2017-Oct-12 18:18N 33°37' W 117°55'0 0.0
2017-Oct-12 18:00N 33°37' W 117°55'0 0.0
2017-Oct-12 17:30N 33°37' W 117°55'0 0.0
2017-Oct-12 17:00N 33°37' W 117°55'0 0.0
2017-Oct-12 16:24N 33°37' W 117°55'0 0.0
2017-Oct-12 15:54N 33°37' W 117°55'0 0.0
2017-Oct-12 15:18N 33°37' W 117°55'0 0.0
2017-Oct-12 14:24N 33°37' W 117°55'0 0.0
2017-Oct-12 13:54N 33°37' W 117°55'0 0.0
2017-Oct-12 13:30N 33°37' W 117°55'0 0.0
2017-Oct-12 13:00N 33°37' W 117°55'0 0.0
2017-Oct-12 12:30N 33°37' W 117°55'0 0.0
2017-Oct-12 11:52N 33°37' W 117°55'0 0.0
2017-Oct-12 11:28N 33°37' W 117°55'0 0.0
2017-Oct-12 10:40N 33°37' W 117°55'0 0.0
2017-Oct-12 10:28N 33°37' W 117°55'0 0.0
2017-Oct-12 09:54N 33°37' W 117°55'0 0.0
2017-Oct-12 09:24N 33°37' W 117°55'0 0.0
2017-Oct-12 08:01N 33°37' W 117°55'0 0.0
2017-Oct-12 07:58N 33°37' W 117°55'0 0.0
2017-Oct-12 07:19N 33°37' W 117°55'0 0.0
2017-Oct-12 07:00N 33°37' W 117°55'0 0.0
2017-Oct-12 06:30N 33°37' W 117°55'0 0.0
2017-Oct-12 06:01N 33°37' W 117°55'0 0.0
2017-Oct-12 04:19N 33°37' W 117°55'0 0.0
2017-Oct-12 04:01N 33°37' W 117°55'0 0.0
2017-Oct-12 03:25N 33°37' W 117°55'0 0.0
2017-Oct-12 02:55N 33°37' W 117°55'0 0.0
2017-Oct-12 02:13N 33°37' W 117°55'0 0.0
2017-Oct-12 01:55N 33°37' W 117°55'0 0.0
2017-Oct-12 01:25N 33°37' W 117°55'0 0.0
2017-Oct-12 00:43N 33°37' W 117°55'0 0.0
2017-Oct-12 00:13N 33°37' W 117°55'0 0.0
2017-Oct-11 23:49N 33°37' W 117°55'0 0.0
2017-Oct-11 22:49N 33°37' W 117°55'0 0.0
2017-Oct-11 22:25N 33°37' W 117°55'0 0.0
2017-Oct-11 21:55N 33°37' W 117°55'0 0.0
2017-Oct-11 21:28N 33°37' W 117°55'0 0.0
2017-Oct-11 18:13N 33°37' W 117°55'0 0.0
2017-Oct-11 17:37N 33°37' W 117°55'0 0.0
2017-Oct-11 17:19N 33°37' W 117°55'0 0.0
2017-Oct-11 16:55N 33°37' W 117°55'0 0.0
2017-Oct-10 23:58N 33°37' W 117°55'0 0.0
2017-Oct-10 23:28N 33°37' W 117°55'0 0.0
2017-Oct-10 22:55N 33°37' W 117°55'0 0.0
2017-Oct-10 22:25N 33°37' W 117°55'0 0.0
2017-Oct-10 21:58N 33°37' W 117°55'0 0.0
2017-Oct-10 21:28N 33°37' W 117°55'0 0.0
2017-Oct-10 20:58N 33°37' W 117°55'0 0.0
2017-Oct-10 20:28N 33°37' W 117°55'0 0.0
2017-Oct-10 19:58N 33°37' W 117°55'0 0.0
2017-Oct-10 19:28N 33°37' W 117°55'0 0.0
2017-Oct-10 18:58N 33°37' W 117°55'0 0.0
2017-Oct-10 18:25N 33°37' W 117°55'0 0.0
2017-Oct-10 17:58N 33°37' W 117°55'0 0.0
2017-Oct-10 17:28N 33°37' W 117°55'0 0.0
2017-Oct-10 16:58N 33°37' W 117°55'0 0.0
2017-Oct-10 16:28N 33°37' W 117°55'0 0.0
2017-Oct-10 15:58N 33°37' W 117°55'0 0.0
2017-Oct-10 15:28N 33°37' W 117°55'0 0.0
2017-Oct-10 14:58N 33°37' W 117°55'0 0.0
2017-Oct-10 13:58N 33°37' W 117°55'0 0.0
2017-Oct-10 13:28N 33°37' W 117°55'0 0.0
2017-Oct-10 12:58N 33°37' W 117°55'0 0.0
2017-Oct-10 12:28N 33°37' W 117°55'0 0.0
2017-Oct-10 11:58N 33°37' W 117°55'0 0.0
2017-Oct-10 11:28N 33°37' W 117°55'0 0.0
2017-Oct-10 10:58N 33°37' W 117°55'0 0.0
2017-Oct-10 10:28N 33°37' W 117°55'0 0.0
2017-Oct-10 09:58N 33°37' W 117°55'0 0.0
2017-Oct-10 09:25N 33°37' W 117°55'0 0.0
2017-Oct-10 08:58N 33°37' W 117°55'0 0.0
2017-Oct-10 08:19N 33°37' W 117°55'0 0.0
2017-Oct-10 07:49N 33°37' W 117°55'0 0.0
2017-Oct-10 07:19N 33°37' W 117°55'0 0.0
2017-Oct-10 06:58N 33°37' W 117°55'0 0.0
2017-Oct-10 06:28N 33°37' W 117°55'0 0.0
2017-Oct-10 05:55N 33°37' W 117°55'0 0.0
2017-Oct-10 05:25N 33°37' W 117°55'0 0.0
2017-Oct-10 04:58N 33°37' W 117°55'0 0.0
2017-Oct-10 04:30N 33°37' W 117°55'0 0.0
2017-Oct-10 04:00N 33°37' W 117°55'0 0.0
2017-Oct-10 03:28N 33°37' W 117°55'0 0.0
2017-Oct-10 02:58N 33°37' W 117°55'0 0.0
2017-Oct-10 02:30N 33°37' W 117°55'0 0.0
2017-Oct-10 02:00N 33°37' W 117°55'0 0.0
2017-Oct-10 01:28N 33°37' W 117°55'0 0.0
2017-Oct-10 00:58N 33°37' W 117°55'0 0.0
2017-Oct-10 00:30N 33°37' W 117°55'0 0.0
2017-Oct-10 00:00N 33°37' W 117°55'0 0.0
2017-Oct-09 23:30N 33°37' W 117°55'0 0.0
2017-Oct-09 23:01N 33°37' W 117°55'0 0.0
2017-Oct-09 22:31N 33°37' W 117°55'0 0.0
2017-Oct-09 22:01N 33°37' W 117°55'0 0.0
2017-Oct-09 21:31N 33°37' W 117°55'0 0.0
2017-Oct-09 21:00N 33°37' W 117°55'0 0.0
2017-Oct-09 20:28N 33°37' W 117°55'0 0.0
2017-Oct-09 19:19N 33°37' W 117°55'0 0.0
2017-Oct-09 18:07N 33°37' W 117°55'0 0.0
2017-Oct-09 17:55N 33°37' W 117°55'0 0.0
2017-Oct-09 17:28N 33°37' W 117°55'0 0.0
2017-Oct-09 16:31N 33°37' W 117°55'0 0.0
2017-Oct-09 16:25N 33°37' W 117°55'0 0.0
2017-Oct-09 15:55N 33°37' W 117°55'0 0.0
2017-Oct-09 15:25N 33°37' W 117°55'0 0.0
2017-Oct-09 14:58N 33°37' W 117°55'0 0.0
2017-Oct-09 14:19N 33°37' W 117°55'0 0.0
2017-Oct-09 13:58N 33°37' W 117°55'0 0.0
2017-Oct-09 13:19N 33°37' W 117°55'0 0.0
2017-Oct-09 12:49N 33°37' W 117°55'0 0.0
2017-Oct-09 12:25N 33°37' W 117°55'0 0.0
2017-Oct-09 11:43N 33°37' W 117°55'0 0.0
2017-Oct-09 11:07N 33°37' W 117°55'0 0.0
2017-Oct-09 10:55N 33°37' W 117°55'0 0.0
2017-Oct-09 10:25N 33°37' W 117°55'0 0.0
2017-Oct-09 09:55N 33°37' W 117°55'0 0.0
2017-Oct-09 09:25N 33°37' W 117°55'0 0.0
2017-Oct-09 08:37N 33°37' W 117°55'0 0.0
2017-Oct-09 08:25N 33°37' W 117°55'0 0.0
2017-Oct-09 07:58N 33°37' W 117°55'0 0.0
2017-Oct-09 07:25N 33°37' W 117°55'0 0.0
2017-Oct-09 06:55N 33°37' W 117°55'0 0.0
2017-Oct-09 06:25N 33°37' W 117°55'0 0.0
2017-Oct-09 05:13N 33°37' W 117°55'0 0.0
2017-Oct-09 04:55N 33°37' W 117°55'0 0.0
2017-Oct-09 04:19N 33°37' W 117°55'0 0.0
2017-Oct-09 03:55N 33°37' W 117°55'0 0.0
2017-Oct-09 01:49N 33°37' W 117°55'0 0.0
2017-Oct-09 01:19N 33°37' W 117°55'0 0.0
2017-Oct-09 00:37N 33°37' W 117°55'0 0.0
2017-Oct-09 00:17N 33°37' W 117°55'0 0.0
2017-Oct-08 23:17N 33°37' W 117°55'0 0.0
2017-Oct-08 23:00N 33°37' W 117°55'1 2.3
2017-Oct-08 22:24N 33°36' W 117°54'0 1.2
2017-Oct-08 22:00N 33°36' W 117°54'1 1.9
2017-Oct-08 21:28N 33°37' W 117°55'0 0.0
2017-Oct-08 20:58N 33°37' W 117°55'0 0.0
2017-Oct-08 20:16N 33°37' W 117°55'0 0.0
2017-Oct-08 19:40N 33°37' W 117°55'0 0.0
2017-Oct-08 19:16N 33°37' W 117°55'0 0.0
2017-Oct-08 18:58N 33°37' W 117°55'0 0.0
2017-Oct-08 18:28N 33°37' W 117°55'0 0.0
2017-Oct-08 17:58N 33°37' W 117°55'0 0.0
2017-Oct-08 17:22N 33°37' W 117°55'0 0.0
2017-Oct-08 16:55N 33°37' W 117°55'0 0.0
2017-Oct-08 16:28N 33°37' W 117°55'0 0.0
2017-Oct-08 15:40N 33°37' W 117°55'0 0.0
2017-Oct-08 15:28N 33°37' W 117°55'0 0.0
2017-Oct-08 14:58N 33°37' W 117°55'0 0.0
2017-Oct-08 14:28N 33°37' W 117°55'0 0.0
2017-Oct-08 13:58N 33°37' W 117°55'0 0.0
2017-Oct-08 13:28N 33°37' W 117°55'0 0.0
2017-Oct-08 12:58N 33°37' W 117°55'0 0.0
2017-Oct-08 12:28N 33°37' W 117°55'0 0.0
2017-Oct-08 11:58N 33°37' W 117°55'0 0.0
2017-Oct-08 11:28N 33°37' W 117°55'0 0.0
2017-Oct-08 10:58N 33°37' W 117°55'0 0.0
2017-Oct-08 10:28N 33°37' W 117°55'0 0.0
2017-Oct-08 09:58N 33°37' W 117°55'0 0.0
2017-Oct-08 09:28N 33°37' W 117°55'0 0.0
2017-Oct-08 08:58N 33°37' W 117°55'0 0.0
2017-Oct-08 08:28N 33°37' W 117°55'0 0.0
2017-Oct-08 07:58N 33°37' W 117°55'0 0.0
2017-Oct-08 07:28N 33°37' W 117°55'0 0.0
2017-Oct-08 06:58N 33°37' W 117°55'0 0.0
2017-Oct-08 06:28N 33°37' W 117°55'0 0.0
2017-Oct-08 05:58N 33°37' W 117°55'0 0.0
2017-Oct-08 05:28N 33°37' W 117°55'0 0.0
2017-Oct-08 04:58N 33°37' W 117°55'0 0.0
2017-Oct-08 04:28N 33°37' W 117°55'0 0.0
2017-Oct-08 03:55N 33°37' W 117°55'0 0.0
2017-Oct-08 03:28N 33°37' W 117°55'0 0.0
2017-Oct-08 02:40N 33°37' W 117°55'0 0.0
2017-Oct-08 02:28N 33°37' W 117°55'0 0.0
2017-Oct-08 01:58N 33°37' W 117°55'0 0.0
2017-Oct-08 01:28N 33°37' W 117°55'0 0.0
2017-Oct-08 00:58N 33°37' W 117°55'0 0.0
2017-Oct-08 00:28N 33°37' W 117°55'0 0.0
2017-Oct-07 23:58N 33°37' W 117°55'0 0.0
2017-Oct-07 23:28N 33°37' W 117°55'0 0.0
2017-Oct-07 22:58N 33°37' W 117°55'0 0.0
2017-Oct-07 22:28N 33°37' W 117°55'0 0.0
2017-Oct-07 21:58N 33°37' W 117°55'0 0.0
2017-Oct-07 21:25N 33°37' W 117°55'0 0.0
2017-Oct-07 20:58N 33°37' W 117°55'0 0.0
2017-Oct-07 20:28N 33°37' W 117°55'0 0.0
2017-Oct-07 19:58N 33°37' W 117°55'0 0.0
2017-Oct-07 19:28N 33°37' W 117°55'0 0.0
2017-Oct-07 18:58N 33°37' W 117°55'0 0.0
2017-Oct-07 18:28N 33°37' W 117°55'0 0.0
2017-Oct-07 17:58N 33°37' W 117°55'0 0.0
2017-Oct-07 17:28N 33°37' W 117°55'0 0.0
2017-Oct-07 16:58N 33°37' W 117°55'0 0.0
2017-Oct-07 16:28N 33°37' W 117°55'0 0.0
2017-Oct-07 15:58N 33°37' W 117°55'0 0.0
2017-Oct-07 15:28N 33°37' W 117°55'0 0.0
2017-Oct-07 14:59N 33°37' W 117°55'0 0.0
2017-Oct-07 14:26N 33°37' W 117°55'0 0.0
2017-Oct-07 13:58N 33°37' W 117°55'0 0.0
2017-Oct-07 13:25N 33°37' W 117°55'0 0.0
2017-Oct-07 12:40N 33°37' W 117°55'0 0.0
2017-Oct-07 12:25N 33°37' W 117°55'0 0.0
2017-Oct-07 11:58N 33°37' W 117°55'0 0.0
2017-Oct-07 11:28N 33°37' W 117°55'0 0.0
2017-Oct-07 10:58N 33°37' W 117°55'0 0.0
2017-Oct-07 10:28N 33°37' W 117°55'0 0.0
2017-Oct-07 09:58N 33°37' W 117°55'0 0.0
2017-Oct-07 09:28N 33°37' W 117°55'0 0.0
2017-Oct-07 08:58N 33°37' W 117°55'0 0.0
2017-Oct-07 08:28N 33°37' W 117°55'0 0.0
2017-Oct-07 07:58N 33°37' W 117°55'0 0.0
2017-Oct-07 07:28N 33°37' W 117°55'0 0.0
2017-Oct-07 06:58N 33°37' W 117°55'0 0.0
2017-Oct-07 06:28N 33°37' W 117°55'0 0.0
2017-Oct-07 05:58N 33°37' W 117°55'0 0.0
2017-Oct-07 05:28N 33°37' W 117°55'0 0.0
2017-Oct-07 04:58N 33°37' W 117°55'0 0.0
2017-Oct-07 04:20N 33°37' W 117°55'0 0.0
2017-Oct-07 03:58N 33°37' W 117°55'0 0.0
2017-Oct-07 03:28N 33°37' W 117°55'0 0.0
2017-Oct-07 02:58N 33°37' W 117°55'0 0.0
2017-Oct-07 02:28N 33°37' W 117°55'0 0.0
2017-Oct-07 01:58N 33°37' W 117°55'0 0.0
2017-Oct-07 01:28N 33°37' W 117°55'0 0.0
2017-Oct-07 00:58N 33°37' W 117°55'0 0.0
2017-Oct-07 00:28N 33°37' W 117°55'0 0.0
2017-Oct-06 23:58N 33°37' W 117°55'0 0.0
2017-Oct-06 23:28N 33°37' W 117°55'0 0.0
2017-Oct-06 22:58N 33°37' W 117°55'0 0.0
2017-Oct-06 22:28N 33°37' W 117°55'  
Track history (hours):
 
Tides and Currents Weather Stations Pressure Air Temp Water Temp Dewpoint Dewpoint Depression Visibility Wind Speed Wind Dir Waves Ship Positions

Dauntless

Owner: Crahan III, Marcus E, Corona del Mar, CA. More information available from US FCC via Universal Licensing System and Coast Guard Vessel Documentation Center.

Last reported at 2017-Oct-16 22:20 UTC. Time now 2017-Oct-16 22:34 UTC.
Position N 33°32' W 118°07'.

Length 16 m.

Type: Sailing vessel. MMSI: 367348670.

Date/timePositionNaut miles runAvg speedWind from/ knotsBaromVisibWave heightAir tempDewpointWater temp
2017-Oct-16 22:20N 33°32' W 118°07'4 7.3
2017-Oct-16 21:49N 33°31' W 118°11'12 7.1
2017-Oct-16 20:07N 33°28' W 118°25'1 7.1
2017-Oct-16 20:00N 33°28' W 118°26'3 1.1
2017-Oct-16 17:01N 33°27' W 118°30'0 0.0
2017-Oct-16 16:58N 33°27' W 118°30'0 0.0
2017-Oct-16 16:12N 33°27' W 118°30'0 0.0
2017-Oct-16 15:48N 33°27' W 118°30'0 0.0
2017-Oct-15 11:24N 33°27' W 118°30'0 0.0
2017-Oct-15 09:42N 33°27' W 118°30'0 0.0
2017-Oct-15 09:29N 33°27' W 118°30'0 0.0
2017-Oct-15 04:59N 33°27' W 118°30'0 0.0
2017-Oct-15 04:30N 33°27' W 118°30'0 0.0
2017-Oct-15 02:48N 33°27' W 118°30'0 0.0
2017-Oct-15 02:29N 33°27' W 118°30'0 0.0
2017-Oct-15 01:59N 33°27' W 118°30'0 0.0
2017-Oct-15 01:23N 33°27' W 118°30'0 0.0
2017-Oct-15 00:55N 33°27' W 118°30'0 0.0
2017-Oct-15 00:30N 33°27' W 118°30'0 0.0
2017-Oct-14 23:59N 33°27' W 118°30'0 0.0
2017-Oct-14 22:54N 33°27' W 118°30'0 0.0
2017-Oct-14 22:28N 33°27' W 118°30'0 0.0
2017-Oct-14 21:21N 33°27' W 118°30'0 0.0
2017-Oct-14 21:00N 33°27' W 118°30'0 0.0
2017-Oct-14 20:30N 33°27' W 118°30'0 0.0
2017-Oct-14 20:00N 33°27' W 118°30'0 0.0
2017-Oct-14 19:30N 33°27' W 118°30'0 0.1
2017-Oct-14 19:00N 33°27' W 118°30'2 4.5
2017-Oct-14 18:30N 33°26' W 118°27'4 6.7
2017-Oct-14 17:58N 33°25' W 118°23'3 6.0
2017-Oct-14 17:30N 33°23' W 118°21'3 5.1
2017-Oct-14 16:58N 33°21' W 118°19'3 7.4
2017-Oct-14 16:30N 33°23' W 118°16'4 7.3
2017-Oct-14 16:00N 33°25' W 118°12'4 7.3
2017-Oct-14 15:29N 33°27' W 118°08'4 7.3
2017-Oct-14 14:57N 33°29' W 118°04'3 7.2
2017-Oct-14 14:30N 33°31' W 118°01'4 7.1
2017-Oct-14 14:00N 33°33' W 117°58'4 7.1
2017-Oct-14 13:30N 33°35' W 117°54'1 2.7
2017-Oct-14 13:00N 33°36' W 117°53'2 3.8
2017-Oct-14 12:30N 33°37' W 117°55'0 0.0
2017-Oct-14 12:00N 33°37' W 117°55'0 0.0
2017-Oct-14 11:24N 33°37' W 117°55'0 0.0
2017-Oct-14 09:06N 33°37' W 117°55'0 0.0
2017-Oct-14 08:54N 33°37' W 117°55'0 0.0
2017-Oct-14 08:24N 33°37' W 117°55'0 0.0
2017-Oct-14 07:54N 33°37' W 117°55'0 0.0
2017-Oct-14 07:27N 33°37' W 117°55'0 0.0
2017-Oct-14 07:00N 33°37' W 117°55'0 0.0
2017-Oct-14 06:30N 33°37' W 117°55'0 0.0
2017-Oct-14 06:00N 33°37' W 117°55'0 0.0
2017-Oct-14 05:30N 33°37' W 117°55'0 0.0
2017-Oct-14 04:12N 33°37' W 117°55'0 0.0
2017-Oct-14 04:00N 33°37' W 117°55'0 0.0
2017-Oct-14 03:30N 33°37' W 117°55'0 0.0
2017-Oct-14 03:00N 33°37' W 117°55'0 0.0
2017-Oct-14 02:30N 33°37' W 117°55'0 0.0
2017-Oct-14 02:00N 33°37' W 117°55'0 0.0
2017-Oct-13 23:48N 33°37' W 117°55'0 0.0
2017-Oct-13 23:30N 33°37' W 117°55'0 0.0
2017-Oct-13 22:54N 33°37' W 117°55'0 0.0
2017-Oct-13 21:39N 33°37' W 117°55'0 0.0
2017-Oct-13 21:24N 33°37' W 117°55'0 0.0
2017-Oct-13 21:00N 33°37' W 117°55'0 0.0
2017-Oct-13 20:30N 33°37' W 117°55'0 0.0
2017-Oct-13 19:36N 33°37' W 117°55'0 0.0
2017-Oct-13 19:30N 33°37' W 117°55'0 0.0
2017-Oct-13 18:51N 33°37' W 117°55'0 0.0
2017-Oct-13 18:24N 33°37' W 117°55'0 0.0
2017-Oct-13 18:00N 33°37' W 117°55'0 0.0
2017-Oct-13 17:00N 33°37' W 117°55'0 0.0
2017-Oct-13 16:12N 33°37' W 117°55'0 0.0
2017-Oct-13 16:00N 33°37' W 117°55'0 0.0
2017-Oct-13 15:30N 33°37' W 117°55'0 0.0
2017-Oct-13 14:45N 33°37' W 117°55'0 0.0
2017-Oct-13 14:30N 33°37' W 117°55'0 0.0
2017-Oct-13 14:00N 33°37' W 117°55'0 0.0
2017-Oct-13 13:30N 33°37' W 117°55'0 0.0
2017-Oct-13 13:00N 33°37' W 117°55'0 0.0
2017-Oct-13 12:12N 33°37' W 117°55'0 0.0
2017-Oct-13 11:42N 33°37' W 117°55'0 0.0
2017-Oct-13 11:30N 33°37' W 117°55'0 0.0
2017-Oct-13 10:42N 33°37' W 117°55'0 0.0
2017-Oct-13 10:24N 33°37' W 117°55'0 0.0
2017-Oct-13 10:00N 33°37' W 117°55'0 0.0
2017-Oct-13 09:30N 33°37' W 117°55'0 0.0
2017-Oct-13 09:00N 33°37' W 117°55'0 0.0
2017-Oct-13 08:00N 33°37' W 117°55'0 0.0
2017-Oct-13 07:30N 33°37' W 117°55'0 0.0
2017-Oct-13 07:00N 33°37' W 117°55'0 0.0
2017-Oct-13 06:30N 33°37' W 117°55'0 0.0
2017-Oct-13 06:00N 33°37' W 117°55'0 0.0
2017-Oct-13 05:30N 33°37' W 117°55'0 0.0
2017-Oct-13 05:00N 33°37' W 117°55'0 0.0
2017-Oct-13 03:06N 33°37' W 117°55'0 0.0
2017-Oct-13 03:00N 33°37' W 117°55'0 0.0
2017-Oct-13 00:10N 33°37' W 117°55'0 0.0
2017-Oct-12 23:52N 33°37' W 117°55'0 0.0
2017-Oct-12 21:06N 33°37' W 117°55'0 0.1
2017-Oct-12 21:00N 33°37' W 117°55'0 0.0
2017-Oct-12 20:24N 33°37' W 117°55'0 0.0
2017-Oct-12 20:00N 33°37' W 117°55'0 0.0
2017-Oct-12 19:30N 33°37' W 117°55'0 0.0
2017-Oct-12 18:18N 33°37' W 117°55'0 0.0
2017-Oct-12 18:00N 33°37' W 117°55'0 0.0
2017-Oct-12 17:30N 33°37' W 117°55'0 0.0
2017-Oct-12 17:00N 33°37' W 117°55'0 0.0
2017-Oct-12 16:24N 33°37' W 117°55'0 0.0
2017-Oct-12 15:54N 33°37' W 117°55'0 0.0
2017-Oct-12 15:18N 33°37' W 117°55'0 0.0
2017-Oct-12 14:24N 33°37' W 117°55'0 0.0
2017-Oct-12 13:54N 33°37' W 117°55'0 0.0
2017-Oct-12 13:30N 33°37' W 117°55'0 0.0
2017-Oct-12 13:00N 33°37' W 117°55'0 0.0
2017-Oct-12 12:30N 33°37' W 117°55'0 0.0
2017-Oct-12 11:52N 33°37' W 117°55'0 0.0
2017-Oct-12 11:28N 33°37' W 117°55'0 0.0
2017-Oct-12 10:40N 33°37' W 117°55'0 0.0
2017-Oct-12 10:28N 33°37' W 117°55'0 0.0
2017-Oct-12 09:54N 33°37' W 117°55'0 0.0
2017-Oct-12 09:24N 33°37' W 117°55'0 0.0
2017-Oct-12 08:01N 33°37' W 117°55'0 0.0
2017-Oct-12 07:58N 33°37' W 117°55'0 0.0
2017-Oct-12 07:19N 33°37' W 117°55'0 0.0
2017-Oct-12 07:00N 33°37' W 117°55'0 0.0
2017-Oct-12 06:30N 33°37' W 117°55'0 0.0
2017-Oct-12 06:01N 33°37' W 117°55'0 0.0
2017-Oct-12 04:19N 33°37' W 117°55'0 0.0
2017-Oct-12 04:01N 33°37' W 117°55'0 0.0
2017-Oct-12 03:25N 33°37' W 117°55'0 0.0
2017-Oct-12 02:55N 33°37' W 117°55'0 0.0
2017-Oct-12 02:13N 33°37' W 117°55'0 0.0
2017-Oct-12 01:55N 33°37' W 117°55'0 0.0
2017-Oct-12 01:25N 33°37' W 117°55'0 0.0
2017-Oct-12 00:43N 33°37' W 117°55'0 0.0
2017-Oct-12 00:13N 33°37' W 117°55'0 0.0
2017-Oct-11 23:49N 33°37' W 117°55'0 0.0
2017-Oct-11 22:49N 33°37' W 117°55'0 0.0
2017-Oct-11 22:25N 33°37' W 117°55'0 0.0
2017-Oct-11 21:55N 33°37' W 117°55'0 0.0
2017-Oct-11 21:28N 33°37' W 117°55'0 0.0
2017-Oct-11 18:13N 33°37' W 117°55'0 0.0
2017-Oct-11 17:37N 33°37' W 117°55'0 0.0
2017-Oct-11 17:19N 33°37' W 117°55'0 0.0
2017-Oct-11 16:55N 33°37' W 117°55'0 0.0
2017-Oct-10 23:58N 33°37' W 117°55'0 0.0
2017-Oct-10 23:28N 33°37' W 117°55'0 0.0
2017-Oct-10 22:55N 33°37' W 117°55'0 0.0
2017-Oct-10 22:25N 33°37' W 117°55'0 0.0
2017-Oct-10 21:58N 33°37' W 117°55'0 0.0
2017-Oct-10 21:28N 33°37' W 117°55'0 0.0
2017-Oct-10 20:58N 33°37' W 117°55'0 0.0
2017-Oct-10 20:28N 33°37' W 117°55'0 0.0
2017-Oct-10 19:58N 33°37' W 117°55'0 0.0
2017-Oct-10 19:28N 33°37' W 117°55'0 0.0
2017-Oct-10 18:58N 33°37' W 117°55'0 0.0
2017-Oct-10 18:25N 33°37' W 117°55'0 0.0
2017-Oct-10 17:58N 33°37' W 117°55'0 0.0
2017-Oct-10 17:28N 33°37' W 117°55'0 0.0
2017-Oct-10 16:58N 33°37' W 117°55'0 0.0
2017-Oct-10 16:28N 33°37' W 117°55'0 0.0
2017-Oct-10 15:58N 33°37' W 117°55'0 0.0
2017-Oct-10 15:28N 33°37' W 117°55'0 0.0
2017-Oct-10 14:58N 33°37' W 117°55'0 0.0
2017-Oct-10 13:58N 33°37' W 117°55'0 0.0
2017-Oct-10 13:28N 33°37' W 117°55'0 0.0
2017-Oct-10 12:58N 33°37' W 117°55'0 0.0
2017-Oct-10 12:28N 33°37' W 117°55'0 0.0
2017-Oct-10 11:58N 33°37' W 117°55'0 0.0
2017-Oct-10 11:28N 33°37' W 117°55'0 0.0
2017-Oct-10 10:58N 33°37' W 117°55'0 0.0
2017-Oct-10 10:28N 33°37' W 117°55'0 0.0
2017-Oct-10 09:58N 33°37' W 117°55'0 0.0
2017-Oct-10 09:25N 33°37' W 117°55'0 0.0
2017-Oct-10 08:58N 33°37' W 117°55'0 0.0
2017-Oct-10 08:19N 33°37' W 117°55'0 0.0
2017-Oct-10 07:49N 33°37' W 117°55'0 0.0
2017-Oct-10 07:19N 33°37' W 117°55'0 0.0
2017-Oct-10 06:58N 33°37' W 117°55'0 0.0
2017-Oct-10 06:28N 33°37' W 117°55'0 0.0
2017-Oct-10 05:55N 33°37' W 117°55'0 0.0
2017-Oct-10 05:25N 33°37' W 117°55'0 0.0
2017-Oct-10 04:58N 33°37' W 117°55'0 0.0
2017-Oct-10 04:30N 33°37' W 117°55'0 0.0
2017-Oct-10 04:00N 33°37' W 117°55'0 0.0
2017-Oct-10 03:28N 33°37' W 117°55'0 0.0
2017-Oct-10 02:58N 33°37' W 117°55'0 0.0
2017-Oct-10 02:30N 33°37' W 117°55'0 0.0
2017-Oct-10 02:00N 33°37' W 117°55'0 0.0
2017-Oct-10 01:28N 33°37' W 117°55'0 0.0
2017-Oct-10 00:58N 33°37' W 117°55'0 0.0
2017-Oct-10 00:30N 33°37' W 117°55'0 0.0
2017-Oct-10 00:00N 33°37' W 117°55'0 0.0
2017-Oct-09 23:30N 33°37' W 117°55'0 0.0
2017-Oct-09 23:01N 33°37' W 117°55'0 0.0
2017-Oct-09 22:31N 33°37' W 117°55'0 0.0
2017-Oct-09 22:01N 33°37' W 117°55'0 0.0
2017-Oct-09 21:31N 33°37' W 117°55'0 0.0
2017-Oct-09 21:00N 33°37' W 117°55'0 0.0
2017-Oct-09 20:28N 33°37' W 117°55'0 0.0
2017-Oct-09 19:19N 33°37' W 117°55'0 0.0
2017-Oct-09 18:07N 33°37' W 117°55'0 0.0
2017-Oct-09 17:55N 33°37' W 117°55'0 0.0
2017-Oct-09 17:28N 33°37' W 117°55'0 0.0
2017-Oct-09 16:31N 33°37' W 117°55'0 0.0
2017-Oct-09 16:25N 33°37' W 117°55'0 0.0
2017-Oct-09 15:55N 33°37' W 117°55'0 0.0
2017-Oct-09 15:25N 33°37' W 117°55'0 0.0
2017-Oct-09 14:58N 33°37' W 117°55'0 0.0
2017-Oct-09 14:19N 33°37' W 117°55'0 0.0
2017-Oct-09 13:58N 33°37' W 117°55'0 0.0
2017-Oct-09 13:19N 33°37' W 117°55'0 0.0
2017-Oct-09 12:49N 33°37' W 117°55'0 0.0
2017-Oct-09 12:25N 33°37' W 117°55'0 0.0
2017-Oct-09 11:43N 33°37' W 117°55'0 0.0
2017-Oct-09 11:07N 33°37' W 117°55'0 0.0
2017-Oct-09 10:55N 33°37' W 117°55'0 0.0
2017-Oct-09 10:25N 33°37' W 117°55'0 0.0
2017-Oct-09 09:55N 33°37' W 117°55'0 0.0
2017-Oct-09 09:25N 33°37' W 117°55'0 0.0
2017-Oct-09 08:37N 33°37' W 117°55'0 0.0
2017-Oct-09 08:25N 33°37' W 117°55'0 0.0
2017-Oct-09 07:58N 33°37' W 117°55'0 0.0
2017-Oct-09 07:25N 33°37' W 117°55'0 0.0
2017-Oct-09 06:55N 33°37' W 117°55'0 0.0
2017-Oct-09 06:25N 33°37' W 117°55'0 0.0
2017-Oct-09 05:13N 33°37' W 117°55'0 0.0
2017-Oct-09 04:55N 33°37' W 117°55'0 0.0
2017-Oct-09 04:19N 33°37' W 117°55'0 0.0
2017-Oct-09 03:55N 33°37' W 117°55'0 0.0
2017-Oct-09 01:49N 33°37' W 117°55'0 0.0
2017-Oct-09 01:19N 33°37' W 117°55'0 0.0
2017-Oct-09 00:37N 33°37' W 117°55'0 0.0
2017-Oct-09 00:17N 33°37' W 117°55'0 0.0
2017-Oct-08 23:17N 33°37' W 117°55'0 0.0
2017-Oct-08 23:00N 33°37' W 117°55'1 2.3
2017-Oct-08 22:24N 33°36' W 117°54'0 1.2
2017-Oct-08 22:00N 33°36' W 117°54'1 1.9
2017-Oct-08 21:28N 33°37' W 117°55'0 0.0
2017-Oct-08 20:58N 33°37' W 117°55'0 0.0
2017-Oct-08 20:16N 33°37' W 117°55'0 0.0
2017-Oct-08 19:40N 33°37' W 117°55'0 0.0
2017-Oct-08 19:16N 33°37' W 117°55'0 0.0
2017-Oct-08 18:58N 33°37' W 117°55'0 0.0
2017-Oct-08 18:28N 33°37' W 117°55'0 0.0
2017-Oct-08 17:58N 33°37' W 117°55'0 0.0
2017-Oct-08 17:22N 33°37' W 117°55'0 0.0
2017-Oct-08 16:55N 33°37' W 117°55'0 0.0
2017-Oct-08 16:28N 33°37' W 117°55'0 0.0
2017-Oct-08 15:40N 33°37' W 117°55'0 0.0
2017-Oct-08 15:28N 33°37' W 117°55'0 0.0
2017-Oct-08 14:58N 33°37' W 117°55'0 0.0
2017-Oct-08 14:28N 33°37' W 117°55'0 0.0
2017-Oct-08 13:58N 33°37' W 117°55'0 0.0
2017-Oct-08 13:28N 33°37' W 117°55'0 0.0
2017-Oct-08 12:58N 33°37' W 117°55'0 0.0
2017-Oct-08 12:28N 33°37' W 117°55'0 0.0
2017-Oct-08 11:58N 33°37' W 117°55'0 0.0
2017-Oct-08 11:28N 33°37' W 117°55'0 0.0
2017-Oct-08 10:58N 33°37' W 117°55'0 0.0
2017-Oct-08 10:28N 33°37' W 117°55'0 0.0
2017-Oct-08 09:58N 33°37' W 117°55'0 0.0
2017-Oct-08 09:28N 33°37' W 117°55'0 0.0
2017-Oct-08 08:58N 33°37' W 117°55'0 0.0
2017-Oct-08 08:28N 33°37' W 117°55'0 0.0
2017-Oct-08 07:58N 33°37' W 117°55'0 0.0
2017-Oct-08 07:28N 33°37' W 117°55'0 0.0
2017-Oct-08 06:58N 33°37' W 117°55'0 0.0
2017-Oct-08 06:28N 33°37' W 117°55'0 0.0
2017-Oct-08 05:58N 33°37' W 117°55'0 0.0
2017-Oct-08 05:28N 33°37' W 117°55'0 0.0
2017-Oct-08 04:58N 33°37' W 117°55'0 0.0
2017-Oct-08 04:28N 33°37' W 117°55'0 0.0
2017-Oct-08 03:55N 33°37' W 117°55'0 0.0
2017-Oct-08 03:28N 33°37' W 117°55'0 0.0
2017-Oct-08 02:40N 33°37' W 117°55'0 0.0
2017-Oct-08 02:28N 33°37' W 117°55'0 0.0
2017-Oct-08 01:58N 33°37' W 117°55'0 0.0
2017-Oct-08 01:28N 33°37' W 117°55'0 0.0
2017-Oct-08 00:58N 33°37' W 117°55'0 0.0
2017-Oct-08 00:28N 33°37' W 117°55'0 0.0
2017-Oct-07 23:58N 33°37' W 117°55'0 0.0
2017-Oct-07 23:28N 33°37' W 117°55'0 0.0
2017-Oct-07 22:58N 33°37' W 117°55'0 0.0
2017-Oct-07 22:28N 33°37' W 117°55'0 0.0
2017-Oct-07 21:58N 33°37' W 117°55'0 0.0
2017-Oct-07 21:25N 33°37' W 117°55'0 0.0
2017-Oct-07 20:58N 33°37' W 117°55'0 0.0
2017-Oct-07 20:28N 33°37' W 117°55'0 0.0
2017-Oct-07 19:58N 33°37' W 117°55'0 0.0
2017-Oct-07 19:28N 33°37' W 117°55'0 0.0
2017-Oct-07 18:58N 33°37' W 117°55'0 0.0
2017-Oct-07 18:28N 33°37' W 117°55'0 0.0
2017-Oct-07 17:58N 33°37' W 117°55'0 0.0
2017-Oct-07 17:28N 33°37' W 117°55'0 0.0
2017-Oct-07 16:58N 33°37' W 117°55'0 0.0
2017-Oct-07 16:28N 33°37' W 117°55'0 0.0
2017-Oct-07 15:58N 33°37' W 117°55'0 0.0
2017-Oct-07 15:28N 33°37' W 117°55'0 0.0
2017-Oct-07 14:59N 33°37' W 117°55'0 0.0
2017-Oct-07 14:26N 33°37' W 117°55'0 0.0
2017-Oct-07 13:58N 33°37' W 117°55'0 0.0
2017-Oct-07 13:25N 33°37' W 117°55'0 0.0
2017-Oct-07 12:40N 33°37' W 117°55'0 0.0
2017-Oct-07 12:25N 33°37' W 117°55'0 0.0
2017-Oct-07 11:58N 33°37' W 117°55'0 0.0
2017-Oct-07 11:28N 33°37' W 117°55'0 0.0
2017-Oct-07 10:58N 33°37' W 117°55'0 0.0
2017-Oct-07 10:28N 33°37' W 117°55'0 0.0
2017-Oct-07 09:58N 33°37' W 117°55'0 0.0
2017-Oct-07 09:28N 33°37' W 117°55'0 0.0
2017-Oct-07 08:58N 33°37' W 117°55'0 0.0
2017-Oct-07 08:28N 33°37' W 117°55'0 0.0
2017-Oct-07 07:58N 33°37' W 117°55'0 0.0
2017-Oct-07 07:28N 33°37' W 117°55'0 0.0
2017-Oct-07 06:58N 33°37' W 117°55'0 0.0
2017-Oct-07 06:28N 33°37' W 117°55'0 0.0
2017-Oct-07 05:58N 33°37' W 117°55'0 0.0
2017-Oct-07 05:28N 33°37' W 117°55'0 0.0
2017-Oct-07 04:58N 33°37' W 117°55'0 0.0
2017-Oct-07 04:20N 33°37' W 117°55'0 0.0
2017-Oct-07 03:58N 33°37' W 117°55'0 0.0
2017-Oct-07 03:28N 33°37' W 117°55'0 0.0
2017-Oct-07 02:58N 33°37' W 117°55'0 0.0
2017-Oct-07 02:28N 33°37' W 117°55'0 0.0
2017-Oct-07 01:58N 33°37' W 117°55'0 0.0
2017-Oct-07 01:28N 33°37' W 117°55'0 0.0
2017-Oct-07 00:58N 33°37' W 117°55'0 0.0
2017-Oct-07 00:28N 33°37' W 117°55'0 0.0
2017-Oct-06 23:58N 33°37' W 117°55'0 0.0
2017-Oct-06 23:28N 33°37' W 117°55'0 0.0
2017-Oct-06 22:58N 33°37' W 117°55'0 0.0
2017-Oct-06 22:28N 33°37' W 117°55'  

Dump ship's entire track history